Accueil
METAR-TAF:

METAR-TAF

Aéroports :

Albert, France

Aéroport Albert-Picardie

latitude: 49-58-21N, longitude: 002-41-29E, altitude: 111 m

Observation

Le bulletin a été fait il y a 28 minutes, à 01:30 UTC
Vent 6 kt de ouest/sud-ouest
Température 12°C
Humidité 88%
Pression 1019 hPa
Visibilité 10 km ou plus
Nuages fragmentés à une hauteur de 3300 ft

METAR: LFAQ 240130Z AUTO 24006KT 9999 BKN033 12/10 Q1019

Heure: 03:58 (01:58 UTC)

Prévision

Le bulletin a été fait il y a 11 heures et 58 minutes, à 14:00 UTC
Prévision valable du 23 à 15 UTC au 23 à 24 UTC
Vent 13 kt de ouest
Visibilité 10 km ou plus
Nuages épars à une hauteur de 3000 ft

TAF: LFAQ 231400Z 2315/2324 27013KT 9999 SCT030

Observations et prévisions météorologiques de plus de 4000 aéroports (messages METAR et TAF).

Les stations disponibles sont représentées par des disques jaunes et rouges sur la carte.

Passer la souris dessus pour voir le nom de la station.

Cliquer dessus pour voir les observations et prévisions météorologiques.

Pour changer de carte: cliquez sur les boutons verts avec une croix noire pour zoomer, sur le bouton vert avec un tiret pour effectuer un zoom arrière, ou sur les flèches vertes pour les cartes adjacentes.


METAR-TAF: